sensor_id;sensor_type;location;lat;lon;timestamp;P1;durP1;ratioP1;P2;durP2;ratioP2
11092;SDS011;5600;50.864;6.102;2022-12-18T00:02:18;43.57;;;10.93;;
11092;SDS011;5600;50.864;6.102;2022-12-18T00:05:19;42.13;;;10.27;;
11092;SDS011;5600;50.864;6.102;2022-12-18T00:08:21;50.17;;;10.90;;
11092;SDS011;5600;50.864;6.102;2022-12-18T00:15:44;46.80;;;10.33;;
11092;SDS011;5600;50.864;6.102;2022-12-18T00:18:45;57.33;;;11.23;;
11092;SDS011;5600;50.864;6.102;2022-12-18T00:21:46;44.90;;;10.33;;
11092;SDS011;5600;50.864;6.102;2022-12-18T00:24:47;48.67;;;9.90;;
11092;SDS011;5600;50.864;6.102;2022-12-18T00:27:48;48.90;;;10.17;;
11092;SDS011;5600;50.864;6.102;2022-12-18T00:30:49;48.83;;;10.10;;
11092;SDS011;5600;50.864;6.102;2022-12-18T00:33:51;38.70;;;9.40;;
11092;SDS011;5600;50.864;6.102;2022-12-18T00:36:55;65.57;;;11.50;;
11092;SDS011;5600;50.864;6.102;2022-12-18T00:39:55;44.93;;;9.67;;
11092;SDS011;5600;50.864;6.102;2022-12-18T00:42:56;44.13;;;9.90;;
11092;SDS011;5600;50.864;6.102;2022-12-18T00:45:57;39.30;;;10.40;;
11092;SDS011;5600;50.864;6.102;2022-12-18T00:48:59;35.27;;;9.00;;
11092;SDS011;5600;50.864;6.102;2022-12-18T00:52:01;41.90;;;9.70;;
11092;SDS011;5600;50.864;6.102;2022-12-18T00:55:01;42.63;;;10.43;;
11092;SDS011;5600;50.864;6.102;2022-12-18T00:58:02;48.67;;;9.93;;
11092;SDS011;5600;50.864;6.102;2022-12-18T01:01:03;77.80;;;11.37;;
11092;SDS011;5600;50.864;6.102;2022-12-18T01:04:08;38.70;;;9.33;;
11092;SDS011;5600;50.864;6.102;2022-12-18T01:07:08;53.83;;;9.63;;
11092;SDS011;5600;50.864;6.102;2022-12-18T01:10:10;44.37;;;9.17;;
11092;SDS011;5600;50.864;6.102;2022-12-18T01:13:12;42.67;;;8.17;;
11092;SDS011;5600;50.864;6.102;2022-12-18T01:16:14;37.30;;;8.07;;
11092;SDS011;5600;50.864;6.102;2022-12-18T01:19:16;47.23;;;9.33;;
11092;SDS011;5600;50.864;6.102;2022-12-18T01:22:17;36.37;;;8.20;;
11092;SDS011;5600;50.864;6.102;2022-12-18T01:25:18;34.57;;;7.70;;
11092;SDS011;5600;50.864;6.102;2022-12-18T01:28:19;41.93;;;7.80;;
11092;SDS011;5600;50.864;6.102;2022-12-18T01:31:21;38.70;;;8.17;;
11092;SDS011;5600;50.864;6.102;2022-12-18T01:34:23;43.53;;;8.07;;
11092;SDS011;5600;50.864;6.102;2022-12-18T01:37:24;41.13;;;7.83;;
11092;SDS011;5600;50.864;6.102;2022-12-18T01:40:25;36.07;;;7.67;;
11092;SDS011;5600;50.864;6.102;2022-12-18T01:43:42;37.83;;;8.00;;
11092;SDS011;5600;50.864;6.102;2022-12-18T01:46:48;49.87;;;11.13;;
11092;SDS011;5600;50.864;6.102;2022-12-18T01:49:48;58.23;;;12.20;;
11092;SDS011;5600;50.864;6.102;2022-12-18T01:52:54;61.77;;;17.40;;
11092;SDS011;5600;50.864;6.102;2022-12-18T01:55:58;47.17;;;10.70;;
11092;SDS011;5600;50.864;6.102;2022-12-18T01:59:00;52.37;;;9.23;;
11092;SDS011;5600;50.864;6.102;2022-12-18T02:02:04;38.83;;;8.07;;
11092;SDS011;5600;50.864;6.102;2022-12-18T02:05:06;44.83;;;8.27;;
11092;SDS011;5600;50.864;6.102;2022-12-18T02:08:15;48.17;;;8.60;;
11092;SDS011;5600;50.864;6.102;2022-12-18T02:18:03;47.03;;;8.80;;
11092;SDS011;5600;50.864;6.102;2022-12-18T02:21:12;42.73;;;8.43;;
11092;SDS011;5600;50.864;6.102;2022-12-18T02:24:59;46.30;;;8.80;;
11092;SDS011;5600;50.864;6.102;2022-12-18T02:28:13;49.33;;;8.80;;
11092;SDS011;5600;50.864;6.102;2022-12-18T02:31:20;38.27;;;7.53;;
11092;SDS011;5600;50.864;6.102;2022-12-18T02:34:29;41.67;;;7.83;;
11092;SDS011;5600;50.864;6.102;2022-12-18T02:37:33;30.57;;;6.63;;
11092;SDS011;5600;50.864;6.102;2022-12-18T02:40:37;44.03;;;8.60;;
11092;SDS011;5600;50.864;6.102;2022-12-18T02:43:39;39.93;;;7.83;;
11092;SDS011;5600;50.864;6.102;2022-12-18T02:46:50;45.20;;;8.30;;
11092;SDS011;5600;50.864;6.102;2022-12-18T02:53:31;41.43;;;7.43;;
11092;SDS011;5600;50.864;6.102;2022-12-18T02:56:35;51.73;;;7.60;;
11092;SDS011;5600;50.864;6.102;2022-12-18T03:00:16;33.80;;;7.03;;
11092;SDS011;5600;50.864;6.102;2022-12-18T03:03:19;38.30;;;6.90;;
11092;SDS011;5600;50.864;6.102;2022-12-18T03:06:24;35.80;;;6.80;;
11092;SDS011;5600;50.864;6.102;2022-12-18T03:09:38;61.90;;;8.13;;
11092;SDS011;5600;50.864;6.102;2022-12-18T03:12:45;34.20;;;6.47;;
11092;SDS011;5600;50.864;6.102;2022-12-18T03:15:58;39.63;;;7.03;;
11092;SDS011;5600;50.864;6.102;2022-12-18T03:19:02;44.47;;;6.40;;
11092;SDS011;5600;50.864;6.102;2022-12-18T03:22:09;44.23;;;6.63;;
11092;SDS011;5600;50.864;6.102;2022-12-18T03:25:28;39.53;;;6.97;;
11092;SDS011;5600;50.864;6.102;2022-12-18T03:28:33;44.97;;;7.73;;
11092;SDS011;5600;50.864;6.102;2022-12-18T03:31:41;38.13;;;6.90;;
11092;SDS011;5600;50.864;6.102;2022-12-18T03:34:47;37.67;;;6.83;;
11092;SDS011;5600;50.864;6.102;2022-12-18T03:37:52;29.43;;;5.60;;
11092;SDS011;5600;50.864;6.102;2022-12-18T03:47:38;37.97;;;6.17;;
11092;SDS011;5600;50.864;6.102;2022-12-18T03:51:01;46.40;;;7.50;;
11092;SDS011;5600;50.864;6.102;2022-12-18T03:54:09;40.33;;;6.53;;
11092;SDS011;5600;50.864;6.102;2022-12-18T03:57:19;58.03;;;7.80;;
11092;SDS011;5600;50.864;6.102;2022-12-18T04:00:24;49.40;;;7.47;;
11092;SDS011;5600;50.864;6.102;2022-12-18T04:03:32;45.70;;;7.03;;
11092;SDS011;5600;50.864;6.102;2022-12-18T04:06:36;26.80;;;5.93;;
11092;SDS011;5600;50.864;6.102;2022-12-18T04:09:38;42.73;;;6.63;;
11092;SDS011;5600;50.864;6.102;2022-12-18T04:12:41;39.43;;;6.90;;
11092;SDS011;5600;50.864;6.102;2022-12-18T04:15:45;36.33;;;6.40;;
11092;SDS011;5600;50.864;6.102;2022-12-18T04:18:52;44.03;;;7.17;;
11092;SDS011;5600;50.864;6.102;2022-12-18T04:21:54;50.47;;;7.73;;
11092;SDS011;5600;50.864;6.102;2022-12-18T04:24:56;48.17;;;7.87;;
11092;SDS011;5600;50.864;6.102;2022-12-18T04:28:04;47.63;;;7.97;;
11092;SDS011;5600;50.864;6.102;2022-12-18T04:31:05;54.20;;;7.73;;
11092;SDS011;5600;50.864;6.102;2022-12-18T04:34:06;40.53;;;7.33;;
11092;SDS011;5600;50.864;6.102;2022-12-18T04:37:13;69.83;;;9.03;;
11092;SDS011;5600;50.864;6.102;2022-12-18T04:40:14;45.47;;;8.30;;
11092;SDS011;5600;50.864;6.102;2022-12-18T04:43:18;55.33;;;8.13;;
11092;SDS011;5600;50.864;6.102;2022-12-18T04:46:19;37.97;;;7.43;;
11092;SDS011;5600;50.864;6.102;2022-12-18T04:49:20;47.03;;;8.50;;
11092;SDS011;5600;50.864;6.102;2022-12-18T04:52:20;41.10;;;7.93;;
11092;SDS011;5600;50.864;6.102;2022-12-18T04:55:21;46.77;;;9.10;;
11092;SDS011;5600;50.864;6.102;2022-12-18T04:58:25;44.27;;;8.63;;
11092;SDS011;5600;50.864;6.102;2022-12-18T05:01:26;48.63;;;8.00;;
11092;SDS011;5600;50.864;6.102;2022-12-18T05:04:27;34.00;;;7.10;;
11092;SDS011;5600;50.864;6.102;2022-12-18T05:07:27;45.57;;;8.17;;
11092;SDS011;5600;50.864;6.102;2022-12-18T05:10:28;35.13;;;7.07;;
11092;SDS011;5600;50.864;6.102;2022-12-18T05:13:29;42.77;;;7.97;;
11092;SDS011;5600;50.864;6.102;2022-12-18T05:16:30;42.07;;;7.60;;
11092;SDS011;5600;50.864;6.102;2022-12-18T05:19:31;35.03;;;7.90;;
11092;SDS011;5600;50.864;6.102;2022-12-18T05:22:32;33.43;;;7.70;;
11092;SDS011;5600;50.864;6.102;2022-12-18T05:25:32;37.97;;;7.73;;
11092;SDS011;5600;50.864;6.102;2022-12-18T05:28:35;35.17;;;7.17;;
11092;SDS011;5600;50.864;6.102;2022-12-18T05:31:36;32.53;;;6.60;;
11092;SDS011;5600;50.864;6.102;2022-12-18T05:34:37;33.80;;;7.07;;
11092;SDS011;5600;50.864;6.102;2022-12-18T05:37:37;34.90;;;7.07;;
11092;SDS011;5600;50.864;6.102;2022-12-18T05:40:40;34.10;;;7.27;;
11092;SDS011;5600;50.864;6.102;2022-12-18T05:43:42;40.13;;;7.07;;
11092;SDS011;5600;50.864;6.102;2022-12-18T05:46:43;41.77;;;7.17;;
11092;SDS011;5600;50.864;6.102;2022-12-18T05:49:43;37.40;;;7.00;;
11092;SDS011;5600;50.864;6.102;2022-12-18T05:52:44;34.00;;;7.13;;
11092;SDS011;5600;50.864;6.102;2022-12-18T05:55:45;33.40;;;6.30;;
11092;SDS011;5600;50.864;6.102;2022-12-18T05:58:46;41.67;;;7.27;;
11092;SDS011;5600;50.864;6.102;2022-12-18T06:01:47;36.47;;;6.73;;
11092;SDS011;5600;50.864;6.102;2022-12-18T06:04:48;40.40;;;7.33;;
11092;SDS011;5600;50.864;6.102;2022-12-18T06:07:49;36.53;;;7.57;;
11092;SDS011;5600;50.864;6.102;2022-12-18T06:10:50;37.27;;;7.50;;
11092;SDS011;5600;50.864;6.102;2022-12-18T06:13:56;34.47;;;6.77;;
11092;SDS011;5600;50.864;6.102;2022-12-18T06:16:56;45.40;;;7.37;;
11092;SDS011;5600;50.864;6.102;2022-12-18T06:19:57;35.00;;;6.83;;
11092;SDS011;5600;50.864;6.102;2022-12-18T06:22:58;40.90;;;7.70;;
11092;SDS011;5600;50.864;6.102;2022-12-18T06:26:03;43.83;;;7.57;;
11092;SDS011;5600;50.864;6.102;2022-12-18T06:29:07;35.37;;;6.93;;
11092;SDS011;5600;50.864;6.102;2022-12-18T06:32:08;48.67;;;8.53;;
11092;SDS011;5600;50.864;6.102;2022-12-18T06:35:09;43.20;;;7.60;;
11092;SDS011;5600;50.864;6.102;2022-12-18T06:38:09;36.40;;;7.33;;
11092;SDS011;5600;50.864;6.102;2022-12-18T06:41:11;43.30;;;9.13;;
11092;SDS011;5600;50.864;6.102;2022-12-18T06:44:14;45.10;;;9.17;;
11092;SDS011;5600;50.864;6.102;2022-12-18T06:47:14;55.63;;;9.63;;
11092;SDS011;5600;50.864;6.102;2022-12-18T06:50:15;48.33;;;9.10;;
11092;SDS011;5600;50.864;6.102;2022-12-18T06:53:16;49.87;;;9.30;;
11092;SDS011;5600;50.864;6.102;2022-12-18T06:56:16;38.83;;;7.33;;
11092;SDS011;5600;50.864;6.102;2022-12-18T06:59:17;46.47;;;7.40;;
11092;SDS011;5600;50.864;6.102;2022-12-18T07:02:18;36.93;;;8.10;;
11092;SDS011;5600;50.864;6.102;2022-12-18T07:05:19;36.37;;;7.33;;
11092;SDS011;5600;50.864;6.102;2022-12-18T07:08:19;40.07;;;7.13;;
11092;SDS011;5600;50.864;6.102;2022-12-18T07:11:20;34.77;;;7.10;;
11092;SDS011;5600;50.864;6.102;2022-12-18T07:14:21;43.77;;;7.43;;
11092;SDS011;5600;50.864;6.102;2022-12-18T07:17:22;31.47;;;6.67;;
11092;SDS011;5600;50.864;6.102;2022-12-18T07:20:23;32.13;;;6.63;;
11092;SDS011;5600;50.864;6.102;2022-12-18T07:23:23;34.47;;;6.63;;
11092;SDS011;5600;50.864;6.102;2022-12-18T07:26:24;35.50;;;7.03;;
11092;SDS011;5600;50.864;6.102;2022-12-18T07:29:26;26.43;;;6.83;;
11092;SDS011;5600;50.864;6.102;2022-12-18T07:32:27;41.30;;;7.90;;
11092;SDS011;5600;50.864;6.102;2022-12-18T07:35:27;38.07;;;8.07;;
11092;SDS011;5600;50.864;6.102;2022-12-18T07:38:28;25.43;;;6.90;;
11092;SDS011;5600;50.864;6.102;2022-12-18T07:41:29;42.03;;;7.63;;
11092;SDS011;5600;50.864;6.102;2022-12-18T07:44:30;33.87;;;7.10;;
11092;SDS011;5600;50.864;6.102;2022-12-18T07:47:33;31.87;;;6.70;;
11092;SDS011;5600;50.864;6.102;2022-12-18T07:50:35;29.77;;;7.27;;
11092;SDS011;5600;50.864;6.102;2022-12-18T07:53:36;31.97;;;7.23;;
11092;SDS011;5600;50.864;6.102;2022-12-18T07:56:37;39.83;;;8.27;;
11092;SDS011;5600;50.864;6.102;2022-12-18T07:59:38;45.63;;;8.30;;
11092;SDS011;5600;50.864;6.102;2022-12-18T08:02:39;42.33;;;9.27;;
11092;SDS011;5600;50.864;6.102;2022-12-18T08:05:39;40.17;;;8.80;;
11092;SDS011;5600;50.864;6.102;2022-12-18T08:08:40;42.40;;;8.37;;
11092;SDS011;5600;50.864;6.102;2022-12-18T08:11:42;33.73;;;8.40;;
11092;SDS011;5600;50.864;6.102;2022-12-18T08:14:43;41.70;;;8.83;;
11092;SDS011;5600;50.864;6.102;2022-12-18T08:17:43;57.50;;;10.00;;
11092;SDS011;5600;50.864;6.102;2022-12-18T08:20:44;42.53;;;9.47;;
11092;SDS011;5600;50.864;6.102;2022-12-18T08:23:45;49.33;;;9.27;;
11092;SDS011;5600;50.864;6.102;2022-12-18T08:26:45;49.47;;;9.73;;
11092;SDS011;5600;50.864;6.102;2022-12-18T08:29:46;39.17;;;9.27;;
11092;SDS011;5600;50.864;6.102;2022-12-18T08:32:47;37.97;;;8.83;;
11092;SDS011;5600;50.864;6.102;2022-12-18T08:35:51;41.13;;;8.43;;
11092;SDS011;5600;50.864;6.102;2022-12-18T08:38:52;44.00;;;9.10;;
11092;SDS011;5600;50.864;6.102;2022-12-18T08:41:53;45.47;;;9.50;;
11092;SDS011;5600;50.864;6.102;2022-12-18T08:45:12;46.00;;;10.03;;
11092;SDS011;5600;50.864;6.102;2022-12-18T08:48:13;43.73;;;9.97;;
11092;SDS011;5600;50.864;6.102;2022-12-18T08:51:15;51.47;;;10.47;;
11092;SDS011;5600;50.864;6.102;2022-12-18T08:54:17;53.50;;;10.03;;
11092;SDS011;5600;50.864;6.102;2022-12-18T08:57:17;67.67;;;11.63;;
11092;SDS011;5600;50.864;6.102;2022-12-18T09:00:18;37.60;;;9.90;;
11092;SDS011;5600;50.864;6.102;2022-12-18T09:03:20;57.23;;;10.83;;
11092;SDS011;5600;50.864;6.102;2022-12-18T09:06:22;49.80;;;11.20;;
11092;SDS011;5600;50.864;6.102;2022-12-18T09:09:23;42.00;;;9.67;;
11092;SDS011;5600;50.864;6.102;2022-12-18T09:12:25;51.60;;;10.13;;
11092;SDS011;5600;50.864;6.102;2022-12-18T09:15:26;46.37;;;9.93;;
11092;SDS011;5600;50.864;6.102;2022-12-18T09:18:27;85.63;;;12.13;;
11092;SDS011;5600;50.864;6.102;2022-12-18T09:21:37;55.73;;;11.23;;
11092;SDS011;5600;50.864;6.102;2022-12-18T09:24:39;46.27;;;10.30;;
11092;SDS011;5600;50.864;6.102;2022-12-18T09:27:39;39.10;;;10.23;;
11092;SDS011;5600;50.864;6.102;2022-12-18T09:30:41;49.20;;;10.37;;
11092;SDS011;5600;50.864;6.102;2022-12-18T09:33:43;38.50;;;10.00;;
11092;SDS011;5600;50.864;6.102;2022-12-18T09:36:45;51.33;;;14.30;;
11092;SDS011;5600;50.864;6.102;2022-12-18T09:39:45;35.60;;;11.07;;
11092;SDS011;5600;50.864;6.102;2022-12-18T09:42:52;52.13;;;11.77;;
11092;SDS011;5600;50.864;6.102;2022-12-18T09:46:08;42.13;;;9.77;;
11092;SDS011;5600;50.864;6.102;2022-12-18T09:49:17;46.00;;;9.47;;
11092;SDS011;5600;50.864;6.102;2022-12-18T09:52:39;45.73;;;9.07;;
11092;SDS011;5600;50.864;6.102;2022-12-18T09:55:44;30.83;;;8.77;;
11092;SDS011;5600;50.864;6.102;2022-12-18T09:58:49;46.03;;;9.63;;
11092;SDS011;5600;50.864;6.102;2022-12-18T10:02:17;50.17;;;9.43;;
11092;SDS011;5600;50.864;6.102;2022-12-18T10:08:40;36.53;;;8.80;;
11092;SDS011;5600;50.864;6.102;2022-12-18T10:15:12;54.90;;;10.27;;
11092;SDS011;5600;50.864;6.102;2022-12-18T10:21:38;45.67;;;10.37;;
11092;SDS011;5600;50.864;6.102;2022-12-18T10:24:57;53.43;;;11.57;;
11092;SDS011;5600;50.864;6.102;2022-12-18T10:28:29;55.17;;;10.67;;
11092;SDS011;5600;50.864;6.102;2022-12-18T10:31:31;33.73;;;9.77;;
11092;SDS011;5600;50.864;6.102;2022-12-18T10:34:32;32.60;;;9.97;;
11092;SDS011;5600;50.864;6.102;2022-12-18T10:37:34;47.07;;;10.47;;
11092;SDS011;5600;50.864;6.102;2022-12-18T10:40:47;42.43;;;10.33;;
11092;SDS011;5600;50.864;6.102;2022-12-18T10:43:52;48.17;;;10.97;;
11092;SDS011;5600;50.864;6.102;2022-12-18T10:47:18;74.23;;;12.53;;
11092;SDS011;5600;50.864;6.102;2022-12-18T10:50:24;42.40;;;10.83;;
11092;SDS011;5600;50.864;6.102;2022-12-18T10:53:26;43.17;;;10.20;;
11092;SDS011;5600;50.864;6.102;2022-12-18T10:56:30;55.63;;;11.17;;
11092;SDS011;5600;50.864;6.102;2022-12-18T10:59:35;52.00;;;11.07;;
11092;SDS011;5600;50.864;6.102;2022-12-18T11:02:55;51.57;;;11.10;;
11092;SDS011;5600;50.864;6.102;2022-12-18T11:06:07;44.03;;;10.67;;
11092;SDS011;5600;50.864;6.102;2022-12-18T11:09:21;45.17;;;10.93;;
11092;SDS011;5600;50.864;6.102;2022-12-18T11:12:24;41.87;;;10.93;;
11092;SDS011;5600;50.864;6.102;2022-12-18T11:15:28;49.63;;;11.80;;
11092;SDS011;5600;50.864;6.102;2022-12-18T11:18:34;59.27;;;12.17;;
11092;SDS011;5600;50.864;6.102;2022-12-18T11:21:39;43.00;;;11.53;;
11092;SDS011;5600;50.864;6.102;2022-12-18T11:24:41;80.53;;;13.33;;
11092;SDS011;5600;50.864;6.102;2022-12-18T11:27:47;45.97;;;11.07;;
11092;SDS011;5600;50.864;6.102;2022-12-18T11:31:08;49.57;;;11.70;;
11092;SDS011;5600;50.864;6.102;2022-12-18T11:34:29;42.43;;;10.73;;
11092;SDS011;5600;50.864;6.102;2022-12-18T11:37:32;74.00;;;12.20;;
11092;SDS011;5600;50.864;6.102;2022-12-18T11:40:35;61.23;;;11.60;;
11092;SDS011;5600;50.864;6.102;2022-12-18T11:46:55;51.40;;;11.87;;
11092;SDS011;5600;50.864;6.102;2022-12-18T11:50:02;53.73;;;11.73;;
11092;SDS011;5600;50.864;6.102;2022-12-18T11:53:11;50.23;;;11.73;;
11092;SDS011;5600;50.864;6.102;2022-12-18T11:56:26;69.10;;;13.30;;
11092;SDS011;5600;50.864;6.102;2022-12-18T12:03:04;49.80;;;11.83;;
11092;SDS011;5600;50.864;6.102;2022-12-18T12:06:19;40.50;;;11.47;;
11092;SDS011;5600;50.864;6.102;2022-12-18T12:16:29;57.37;;;12.63;;
11092;SDS011;5600;50.864;6.102;2022-12-18T12:32:51;97.10;;;14.97;;
11092;SDS011;5600;50.864;6.102;2022-12-18T12:39:27;67.97;;;13.63;;
11092;SDS011;5600;50.864;6.102;2022-12-18T12:49:11;54.67;;;13.07;;
11092;SDS011;5600;50.864;6.102;2022-12-18T12:52:26;55.00;;;13.80;;
11092;SDS011;5600;50.864;6.102;2022-12-18T12:55:37;65.37;;;13.13;;
11092;SDS011;5600;50.864;6.102;2022-12-18T13:02:22;52.23;;;12.50;;
11092;SDS011;5600;50.864;6.102;2022-12-18T13:05:41;53.93;;;12.83;;
11092;SDS011;5600;50.864;6.102;2022-12-18T13:09:01;66.40;;;13.37;;
11092;SDS011;5600;50.864;6.102;2022-12-18T13:12:04;71.43;;;12.77;;
11092;SDS011;5600;50.864;6.102;2022-12-18T13:15:31;63.23;;;13.40;;
11092;SDS011;5600;50.864;6.102;2022-12-18T13:18:35;66.30;;;12.57;;
11092;SDS011;5600;50.864;6.102;2022-12-18T13:21:36;70.67;;;13.23;;
11092;SDS011;5600;50.864;6.102;2022-12-18T13:24:38;64.67;;;12.63;;
11092;SDS011;5600;50.864;6.102;2022-12-18T13:30:56;60.20;;;13.00;;
11092;SDS011;5600;50.864;6.102;2022-12-18T13:37:40;108.83;;;15.87;;
11092;SDS011;5600;50.864;6.102;2022-12-18T13:43:50;63.83;;;12.97;;
11092;SDS011;5600;50.864;6.102;2022-12-18T13:46:53;75.50;;;13.80;;
11092;SDS011;5600;50.864;6.102;2022-12-18T13:49:54;70.60;;;13.90;;
11092;SDS011;5600;50.864;6.102;2022-12-18T13:52:56;69.50;;;13.93;;
11092;SDS011;5600;50.864;6.102;2022-12-18T13:55:58;43.17;;;11.93;;
11092;SDS011;5600;50.864;6.102;2022-12-18T13:59:11;59.20;;;12.93;;
11092;SDS011;5600;50.864;6.102;2022-12-18T14:02:22;51.37;;;12.20;;
11092;SDS011;5600;50.864;6.102;2022-12-18T14:05:32;59.57;;;13.40;;
11092;SDS011;5600;50.864;6.102;2022-12-18T14:08:37;57.23;;;13.00;;
11092;SDS011;5600;50.864;6.102;2022-12-18T14:11:40;55.33;;;13.07;;
11092;SDS011;5600;50.864;6.102;2022-12-18T14:14:47;51.23;;;13.80;;
11092;SDS011;5600;50.864;6.102;2022-12-18T14:18:01;65.37;;;13.93;;
11092;SDS011;5600;50.864;6.102;2022-12-18T14:21:15;58.17;;;13.00;;
11092;SDS011;5600;50.864;6.102;2022-12-18T14:24:26;64.20;;;13.83;;
11092;SDS011;5600;50.864;6.102;2022-12-18T14:27:28;62.13;;;13.27;;
11092;SDS011;5600;50.864;6.102;2022-12-18T14:30:30;60.90;;;13.40;;
11092;SDS011;5600;50.864;6.102;2022-12-18T14:33:39;62.80;;;13.40;;
11092;SDS011;5600;50.864;6.102;2022-12-18T14:36:40;71.80;;;14.00;;
11092;SDS011;5600;50.864;6.102;2022-12-18T14:39:51;60.73;;;14.07;;
11092;SDS011;5600;50.864;6.102;2022-12-18T14:43:03;58.77;;;13.57;;
11092;SDS011;5600;50.864;6.102;2022-12-18T14:46:49;56.93;;;12.73;;
11092;SDS011;5600;50.864;6.102;2022-12-18T14:49:37;57.87;;;12.60;;
11092;SDS011;5600;50.864;6.102;2022-12-18T14:52:42;65.27;;;14.10;;
11092;SDS011;5600;50.864;6.102;2022-12-18T14:55:45;61.20;;;13.17;;
11092;SDS011;5600;50.864;6.102;2022-12-18T14:58:51;51.47;;;13.53;;
11092;SDS011;5600;50.864;6.102;2022-12-18T15:01:57;45.40;;;12.17;;
11092;SDS011;5600;50.864;6.102;2022-12-18T15:05:25;39.67;;;11.13;;
11092;SDS011;5600;50.864;6.102;2022-12-18T15:08:29;45.07;;;12.10;;
11092;SDS011;5600;50.864;6.102;2022-12-18T15:14:40;67.10;;;14.03;;
11092;SDS011;5600;50.864;6.102;2022-12-18T15:17:41;84.57;;;14.17;;
11092;SDS011;5600;50.864;6.102;2022-12-18T15:23:49;53.10;;;13.03;;
11092;SDS011;5600;50.864;6.102;2022-12-18T15:26:51;63.07;;;12.80;;
11092;SDS011;5600;50.864;6.102;2022-12-18T15:29:59;62.63;;;13.90;;
11092;SDS011;5600;50.864;6.102;2022-12-18T15:33:22;60.20;;;13.37;;
11092;SDS011;5600;50.864;6.102;2022-12-18T15:36:25;53.70;;;13.57;;
11092;SDS011;5600;50.864;6.102;2022-12-18T15:39:30;56.23;;;14.47;;
11092;SDS011;5600;50.864;6.102;2022-12-18T15:42:30;59.87;;;14.57;;
11092;SDS011;5600;50.864;6.102;2022-12-18T15:45:49;63.23;;;13.63;;
11092;SDS011;5600;50.864;6.102;2022-12-18T15:48:51;64.70;;;14.10;;
11092;SDS011;5600;50.864;6.102;2022-12-18T15:51:54;59.50;;;12.70;;
11092;SDS011;5600;50.864;6.102;2022-12-18T15:54:58;65.20;;;13.90;;
11092;SDS011;5600;50.864;6.102;2022-12-18T15:58:17;70.17;;;13.33;;
11092;SDS011;5600;50.864;6.102;2022-12-18T16:01:20;74.13;;;14.70;;
11092;SDS011;5600;50.864;6.102;2022-12-18T16:04:29;56.00;;;14.10;;
11092;SDS011;5600;50.864;6.102;2022-12-18T16:07:30;49.03;;;12.13;;
11092;SDS011;5600;50.864;6.102;2022-12-18T16:10:30;57.93;;;13.97;;
11092;SDS011;5600;50.864;6.102;2022-12-18T16:13:32;66.77;;;14.80;;
11092;SDS011;5600;50.864;6.102;2022-12-18T16:16:33;60.30;;;14.53;;
11092;SDS011;5600;50.864;6.102;2022-12-18T16:19:33;74.50;;;14.83;;
11092;SDS011;5600;50.864;6.102;2022-12-18T16:22:34;68.37;;;14.23;;
11092;SDS011;5600;50.864;6.102;2022-12-18T16:25:34;65.17;;;14.50;;
11092;SDS011;5600;50.864;6.102;2022-12-18T16:28:35;76.37;;;15.17;;
11092;SDS011;5600;50.864;6.102;2022-12-18T16:31:36;55.57;;;13.87;;
11092;SDS011;5600;50.864;6.102;2022-12-18T16:34:37;59.27;;;14.07;;
11092;SDS011;5600;50.864;6.102;2022-12-18T16:37:38;66.00;;;14.97;;
11092;SDS011;5600;50.864;6.102;2022-12-18T16:40:39;68.17;;;14.77;;
11092;SDS011;5600;50.864;6.102;2022-12-18T16:44:02;65.50;;;14.97;;
11092;SDS011;5600;50.864;6.102;2022-12-18T16:47:03;65.17;;;13.83;;
11092;SDS011;5600;50.864;6.102;2022-12-18T16:50:04;68.13;;;14.00;;
11092;SDS011;5600;50.864;6.102;2022-12-18T16:53:06;61.93;;;15.43;;
11092;SDS011;5600;50.864;6.102;2022-12-18T16:56:07;68.13;;;14.60;;
11092;SDS011;5600;50.864;6.102;2022-12-18T16:59:09;74.50;;;16.00;;
11092;SDS011;5600;50.864;6.102;2022-12-18T17:02:20;63.43;;;14.90;;
11092;SDS011;5600;50.864;6.102;2022-12-18T17:05:23;70.17;;;15.33;;
11092;SDS011;5600;50.864;6.102;2022-12-18T17:08:23;64.10;;;14.30;;
11092;SDS011;5600;50.864;6.102;2022-12-18T17:11:24;73.47;;;14.60;;
11092;SDS011;5600;50.864;6.102;2022-12-18T17:14:26;71.20;;;15.27;;
11092;SDS011;5600;50.864;6.102;2022-12-18T17:17:27;63.40;;;14.60;;
11092;SDS011;5600;50.864;6.102;2022-12-18T17:20:28;52.80;;;13.70;;
11092;SDS011;5600;50.864;6.102;2022-12-18T17:23:29;60.00;;;15.60;;
11092;SDS011;5600;50.864;6.102;2022-12-18T17:26:30;60.60;;;14.90;;
11092;SDS011;5600;50.864;6.102;2022-12-18T17:29:31;67.97;;;14.97;;
11092;SDS011;5600;50.864;6.102;2022-12-18T17:32:31;68.67;;;15.93;;
11092;SDS011;5600;50.864;6.102;2022-12-18T17:35:32;67.93;;;15.63;;
11092;SDS011;5600;50.864;6.102;2022-12-18T17:38:33;75.30;;;16.97;;
11092;SDS011;5600;50.864;6.102;2022-12-18T17:41:34;79.40;;;16.50;;
11092;SDS011;5600;50.864;6.102;2022-12-18T17:44:35;69.07;;;15.20;;
11092;SDS011;5600;50.864;6.102;2022-12-18T17:47:36;143.93;;;19.50;;
11092;SDS011;5600;50.864;6.102;2022-12-18T17:50:37;66.53;;;15.43;;
11092;SDS011;5600;50.864;6.102;2022-12-18T17:53:38;71.67;;;15.43;;
11092;SDS011;5600;50.864;6.102;2022-12-18T17:56:39;68.53;;;15.43;;
11092;SDS011;5600;50.864;6.102;2022-12-18T17:59:39;51.23;;;13.60;;
11092;SDS011;5600;50.864;6.102;2022-12-18T18:02:40;86.80;;;16.57;;
11092;SDS011;5600;50.864;6.102;2022-12-18T18:05:41;74.77;;;15.90;;
11092;SDS011;5600;50.864;6.102;2022-12-18T18:08:41;75.53;;;15.70;;
11092;SDS011;5600;50.864;6.102;2022-12-18T18:11:43;80.90;;;16.33;;
11092;SDS011;5600;50.864;6.102;2022-12-18T18:15:03;91.53;;;16.13;;
11092;SDS011;5600;50.864;6.102;2022-12-18T18:18:04;90.53;;;16.23;;
11092;SDS011;5600;50.864;6.102;2022-12-18T18:21:05;64.60;;;14.63;;
11092;SDS011;5600;50.864;6.102;2022-12-18T18:24:07;68.57;;;15.20;;
11092;SDS011;5600;50.864;6.102;2022-12-18T18:27:09;98.27;;;16.73;;
11092;SDS011;5600;50.864;6.102;2022-12-18T18:30:11;55.17;;;14.20;;
11092;SDS011;5600;50.864;6.102;2022-12-18T18:33:11;52.67;;;13.87;;
11092;SDS011;5600;50.864;6.102;2022-12-18T18:36:12;56.70;;;14.73;;
11092;SDS011;5600;50.864;6.102;2022-12-18T18:39:13;61.10;;;13.67;;
11092;SDS011;5600;50.864;6.102;2022-12-18T18:42:14;62.03;;;13.50;;
11092;SDS011;5600;50.864;6.102;2022-12-18T18:45:15;51.17;;;13.23;;
11092;SDS011;5600;50.864;6.102;2022-12-18T18:48:16;52.03;;;12.50;;
11092;SDS011;5600;50.864;6.102;2022-12-18T18:51:17;53.20;;;14.27;;
11092;SDS011;5600;50.864;6.102;2022-12-18T18:54:19;64.50;;;14.67;;
11092;SDS011;5600;50.864;6.102;2022-12-18T18:57:22;95.97;;;16.77;;
11092;SDS011;5600;50.864;6.102;2022-12-18T19:00:23;57.53;;;14.17;;
11092;SDS011;5600;50.864;6.102;2022-12-18T19:03:24;60.00;;;15.23;;
11092;SDS011;5600;50.864;6.102;2022-12-18T19:06:26;60.57;;;14.80;;
11092;SDS011;5600;50.864;6.102;2022-12-18T19:09:27;57.63;;;13.87;;
11092;SDS011;5600;50.864;6.102;2022-12-18T19:12:28;49.83;;;14.63;;
11092;SDS011;5600;50.864;6.102;2022-12-18T19:15:47;53.83;;;14.27;;
11092;SDS011;5600;50.864;6.102;2022-12-18T19:18:48;52.50;;;14.10;;
11092;SDS011;5600;50.864;6.102;2022-12-18T19:21:51;77.07;;;16.57;;
11092;SDS011;5600;50.864;6.102;2022-12-18T19:24:51;74.37;;;15.97;;
11092;SDS011;5600;50.864;6.102;2022-12-18T19:27:52;55.80;;;14.97;;
11092;SDS011;5600;50.864;6.102;2022-12-18T19:30:53;78.80;;;15.77;;
11092;SDS011;5600;50.864;6.102;2022-12-18T19:33:58;78.73;;;18.00;;
11092;SDS011;5600;50.864;6.102;2022-12-18T19:36:59;85.47;;;16.40;;
11092;SDS011;5600;50.864;6.102;2022-12-18T19:40:00;62.00;;;15.87;;
11092;SDS011;5600;50.864;6.102;2022-12-18T19:43:01;53.73;;;14.10;;
11092;SDS011;5600;50.864;6.102;2022-12-18T19:46:05;93.47;;;16.73;;
11092;SDS011;5600;50.864;6.102;2022-12-18T19:49:09;94.27;;;16.43;;
11092;SDS011;5600;50.864;6.102;2022-12-18T19:52:10;62.53;;;14.77;;